Search for airport 
image banner adimage banner adimage banner ad
image banner ad

CN10 - Mono County Medical

Located in Bridgeport, United States

ICAO - CN10, IATA -

Data provided by Airmate  

General information

Coordinates: N38°15'8" W119°13'49"
Elevation is 6450 feet MSL.
Magnetic variation is 16° East
View others Airports in California

Operational data

Special qualification required
Current time UTC:
Current local time:
Weather at : KHTH - Hawthorne Industrial ( 61 km )
METAR: KHTH 212355Z AUTO 35007KT 10SM CLR 28/M05 A3026 RMK A01
View NOTAMs / SUP AIP / TFR affecting this airport [VIEW]
Communications frequencies: [VIEW]

Runways:

Airport contact information

Address: Bridgeport United States

Satellite view of CN10